Terminal Aerodrome Forecast
Issued by NWS Omaha/Valley, NE

Home | Current Version | Previous Version | Text Only | Print | Product List | Glossary On
Versions: 1 2 3 4 5 6 7 8 9 10 11 12 13 14 15 16 17 18 19 20 21 22 23 24 25 26 27 28 29 30 31 32 33 34 35 36 37 38 39 40 41 42 43 44 45 46 47 48
000
FTUS43 KOAX 271507 AAC
TAFOMA
TAF AMD
KOMA 271507Z 2715/2812 09007KT P6SM OVC015
      TEMPO 2715/2716 1/2SM +TSRA BKN004CB
     FM271900 11007KT P6SM OVC050
     FM280000 12008KT 5SM -SHRA BR OVC025
      TEMPO 2804/2808 3SM TSRA BR OVC015CB=

USA.gov is the U.S. government's official web portal to all federal, state and local government web resources and services.